createdAt,value
2023-01-03T00:00:46.552Z,11.00
2023-01-03T00:01:46.188Z,10.70
2023-01-03T00:02:46.257Z,11.00
2023-01-03T00:03:46.268Z,11.00
2023-01-03T00:04:49.782Z,10.50
2023-01-03T00:05:46.183Z,10.60
2023-01-03T00:06:46.235Z,10.80
2023-01-03T00:07:46.180Z,10.80
2023-01-03T00:08:46.203Z,11.00
2023-01-03T00:09:46.182Z,10.90
2023-01-03T00:10:46.175Z,11.10
2023-01-03T00:11:46.178Z,10.60
2023-01-03T00:12:46.170Z,10.60
2023-01-03T00:13:46.176Z,10.80
2023-01-03T00:14:46.168Z,10.90
2023-01-03T00:15:46.182Z,10.70
2023-01-03T00:16:46.222Z,10.80
2023-01-03T00:17:46.163Z,10.60
2023-01-03T00:18:46.163Z,11.00
2023-01-03T00:19:46.168Z,11.10
2023-01-03T00:20:46.156Z,10.90
2023-01-03T00:21:46.179Z,10.70
2023-01-03T00:22:46.192Z,11.00
2023-01-03T00:23:46.161Z,10.90
2023-01-03T00:24:46.198Z,10.30
2023-01-03T00:25:46.158Z,10.50
2023-01-03T00:26:46.149Z,10.30
2023-01-03T00:27:46.160Z,10.10
2023-01-03T00:28:46.161Z,10.50
2023-01-03T00:29:46.173Z,10.30
2023-01-03T00:30:46.235Z,10.50
2023-01-03T00:31:46.146Z,10.40
2023-01-03T00:32:46.141Z,10.50
2023-01-03T00:33:46.146Z,10.00
2023-01-03T00:34:46.152Z,10.30
2023-01-03T00:35:46.142Z,10.70
2023-01-03T00:36:46.136Z,10.40
2023-01-03T00:37:46.139Z,10.60
2023-01-03T00:38:46.264Z,10.30
2023-01-03T00:39:46.144Z,10.40
2023-01-03T00:40:46.127Z,10.50
2023-01-03T00:41:46.137Z,11.00
2023-01-03T00:42:46.128Z,10.90
2023-01-03T00:43:46.134Z,10.90
2023-01-03T00:44:46.135Z,10.60
2023-01-03T00:45:46.212Z,10.70
2023-01-03T00:46:46.120Z,10.80
2023-01-03T00:47:46.130Z,10.40
2023-01-03T00:48:46.123Z,10.80
2023-01-03T00:49:46.127Z,11.40
2023-01-03T00:50:46.128Z,10.40
2023-01-03T00:51:46.120Z,10.70
2023-01-03T00:52:46.139Z,11.20
2023-01-03T00:53:46.131Z,11.00
2023-01-03T00:54:46.226Z,10.70
2023-01-03T00:55:46.106Z,10.90
2023-01-03T00:56:46.105Z,11.10
2023-01-03T00:57:46.118Z,11.20
2023-01-03T00:58:46.103Z,11.10
2023-01-03T00:59:46.116Z,10.70
2023-01-03T01:00:46.100Z,10.70
2023-01-03T01:01:47.524Z,10.70
2023-01-03T01:02:46.242Z,10.70
2023-01-03T01:03:46.167Z,10.50
2023-01-03T01:04:46.091Z,10.80
2023-01-03T01:05:46.106Z,10.60
2023-01-03T01:06:46.092Z,11.20
2023-01-03T01:07:46.095Z,11.00
2023-01-03T01:08:46.097Z,11.00
2023-01-03T01:09:46.091Z,10.70
2023-01-03T01:10:46.121Z,11.30
2023-01-03T01:11:46.089Z,11.00
2023-01-03T01:12:46.083Z,11.20
2023-01-03T01:13:46.084Z,10.70
2023-01-03T01:14:46.087Z,10.80
2023-01-03T01:15:46.126Z,10.60
2023-01-03T01:16:46.076Z,10.90
2023-01-03T01:17:46.080Z,11.10
2023-01-03T01:18:46.070Z,10.90
2023-01-03T01:19:46.074Z,11.00
2023-01-03T01:20:46.119Z,11.00
2023-01-03T01:21:46.081Z,11.00
2023-01-03T01:22:46.069Z,11.00
2023-01-03T01:23:46.070Z,11.50
2023-01-03T01:24:46.067Z,11.40
2023-01-03T01:25:46.068Z,11.40
2023-01-03T01:26:46.091Z,11.20
2023-01-03T01:27:46.078Z,10.80
2023-01-03T01:28:46.061Z,10.70
2023-01-03T01:29:46.065Z,10.90
2023-01-03T01:30:46.108Z,10.60
2023-01-03T01:31:46.067Z,10.50
2023-01-03T01:32:46.055Z,10.70
2023-01-03T01:33:46.056Z,10.70
2023-01-03T01:34:46.052Z,10.90
2023-01-03T01:35:46.053Z,10.60
2023-01-03T01:36:46.060Z,10.80
2023-01-03T01:37:46.050Z,10.70
2023-01-03T01:38:46.046Z,10.70
2023-01-03T01:39:46.045Z,10.70
2023-01-03T01:40:46.042Z,10.50
2023-01-03T01:41:46.048Z,10.70
2023-01-03T01:42:46.061Z,10.60
2023-01-03T01:43:46.037Z,10.60
2023-01-03T01:44:46.045Z,10.90
2023-01-03T01:45:46.038Z,10.50
2023-01-03T01:46:46.129Z,10.70
2023-01-03T01:47:46.042Z,11.00
2023-01-03T01:48:46.030Z,11.10
2023-01-03T01:49:46.033Z,11.00
2023-01-03T01:50:46.029Z,10.40
2023-01-03T01:51:46.026Z,10.00
2023-01-03T01:52:46.023Z,10.40
2023-01-03T01:53:46.026Z,10.20
2023-01-03T01:54:46.018Z,9.90
2023-01-03T01:55:46.028Z,10.10
2023-01-03T01:56:46.018Z,10.00
2023-01-03T01:57:46.024Z,10.30
2023-01-03T01:58:46.044Z,10.10
2023-01-03T01:59:46.043Z,10.50
2023-01-03T02:00:46.017Z,10.00
2023-01-03T02:01:46.147Z,10.20
2023-01-03T02:02:46.308Z,10.30
2023-01-03T02:03:46.072Z,10.10
2023-01-03T02:04:46.004Z,10.10
2023-01-03T02:05:46.004Z,10.30
2023-01-03T02:06:46.005Z,10.00
2023-01-03T02:07:46.002Z,10.40
2023-01-03T02:08:45.997Z,10.00
2023-01-03T02:09:45.997Z,9.90
2023-01-03T02:10:45.995Z,10.00
2023-01-03T02:11:45.997Z,10.20
2023-01-03T02:12:45.994Z,10.20
2023-01-03T02:13:45.993Z,10.10
2023-01-03T02:14:46.016Z,10.60
2023-01-03T02:15:46.077Z,10.30
2023-01-03T02:16:46.015Z,9.90
2023-01-03T02:17:45.992Z,9.60
2023-01-03T02:18:45.988Z,9.70
2023-01-03T02:19:46.025Z,9.80
2023-01-03T02:20:46.033Z,10.00
2023-01-03T02:21:46.003Z,10.40
2023-01-03T02:22:45.979Z,9.80
2023-01-03T02:23:45.982Z,10.50
2023-01-03T02:24:45.980Z,10.30
2023-01-03T02:25:45.974Z,9.90
2023-01-03T02:26:46.005Z,10.00
2023-01-03T02:27:45.982Z,10.70
2023-01-03T02:28:45.969Z,10.20
2023-01-03T02:29:45.984Z,10.40
2023-01-03T02:30:46.178Z,10.20
2023-01-03T02:31:46.079Z,10.50
2023-01-03T02:32:45.971Z,10.30
2023-01-03T02:33:45.967Z,10.00
2023-01-03T02:34:45.961Z,10.30
2023-01-03T02:35:45.963Z,10.00
2023-01-03T02:36:45.956Z,10.40
2023-01-03T02:37:45.961Z,10.50
2023-01-03T02:38:45.955Z,10.20
2023-01-03T02:39:45.976Z,10.40
2023-01-03T02:40:45.952Z,10.40
2023-01-03T02:41:45.963Z,10.20
2023-01-03T02:42:45.953Z,10.10
2023-01-03T02:43:45.946Z,10.20
2023-01-03T02:44:45.949Z,10.00
2023-01-03T02:45:45.960Z,10.00
2023-01-03T02:46:46.049Z,10.20
2023-01-03T02:47:45.942Z,9.90
2023-01-03T02:48:45.938Z,10.00
2023-01-03T02:49:45.939Z,10.00
2023-01-03T02:50:45.942Z,10.40
2023-01-03T02:51:45.930Z,10.40
2023-01-03T02:52:45.932Z,10.30
2023-01-03T02:53:45.935Z,10.70
2023-01-03T02:54:45.930Z,10.60
2023-01-03T02:55:45.934Z,10.20
2023-01-03T02:56:45.941Z,10.50
2023-01-03T02:57:45.931Z,10.00
2023-01-03T02:58:45.927Z,10.50
2023-01-03T02:59:45.930Z,9.90
2023-01-03T03:00:45.915Z,10.20
2023-01-03T03:01:46.009Z,10.50
2023-01-03T03:02:46.177Z,12.20
2023-01-03T03:03:46.000Z,10.00
2023-01-03T03:04:45.917Z,10.40
2023-01-03T03:05:45.912Z,10.10
2023-01-03T03:06:45.906Z,10.50
2023-01-03T03:07:45.911Z,10.00
2023-01-03T03:08:45.904Z,10.10
2023-01-03T03:09:45.908Z,10.30
2023-01-03T03:10:45.902Z,10.20
2023-01-03T03:11:45.899Z,9.70
2023-01-03T03:12:45.903Z,10.10
2023-01-03T03:13:45.896Z,10.10
2023-01-03T03:14:45.896Z,10.50
2023-01-03T03:15:45.932Z,10.50
2023-01-03T03:16:45.890Z,10.20
2023-01-03T03:17:45.890Z,10.40
2023-01-03T03:18:45.908Z,10.40
2023-01-03T03:19:45.888Z,10.60
2023-01-03T03:20:45.885Z,9.60
2023-01-03T03:21:45.886Z,10.20
2023-01-03T03:22:45.888Z,10.00
2023-01-03T03:23:45.905Z,9.70
2023-01-03T03:24:45.877Z,10.00
2023-01-03T03:25:45.882Z,10.30
2023-01-03T03:26:45.872Z,10.40
2023-01-03T03:27:45.871Z,10.00
2023-01-03T03:28:45.870Z,10.00
2023-01-03T03:29:45.872Z,10.50
2023-01-03T03:30:45.869Z,10.40
2023-01-03T03:31:45.902Z,10.10
2023-01-03T03:32:45.862Z,10.20
2023-01-03T03:33:45.872Z,10.80
2023-01-03T03:34:45.941Z,10.30
2023-01-03T03:35:45.855Z,10.10
2023-01-03T03:36:45.852Z,10.10
2023-01-03T03:37:45.851Z,10.10
2023-01-03T03:38:45.867Z,9.70
2023-01-03T03:39:45.863Z,10.30
2023-01-03T03:40:45.842Z,10.10
2023-01-03T03:41:45.850Z,10.50
2023-01-03T03:42:45.843Z,10.40
2023-01-03T03:43:45.842Z,10.00
2023-01-03T03:44:45.837Z,10.10
2023-01-03T03:45:45.846Z,10.30
2023-01-03T03:46:52.477Z,10.50
2023-01-03T03:47:45.842Z,10.60
2023-01-03T03:48:45.824Z,10.20
2023-01-03T03:49:45.834Z,10.60
2023-01-03T03:50:45.951Z,10.30
2023-01-03T03:51:45.836Z,10.40
2023-01-03T03:52:45.827Z,10.10
2023-01-03T03:53:45.835Z,10.10
2023-01-03T03:54:45.822Z,10.30
2023-01-03T03:55:45.822Z,10.20
2023-01-03T03:56:45.814Z,10.10
2023-01-03T03:57:45.813Z,9.90
2023-01-03T03:58:45.809Z,10.00
2023-01-03T03:59:45.814Z,10.00
2023-01-03T04:00:45.804Z,9.70
2023-01-03T04:01:45.989Z,10.20
2023-01-03T04:02:45.925Z,9.80
2023-01-03T04:03:45.884Z,10.20
2023-01-03T04:04:45.806Z,10.10
2023-01-03T04:05:45.799Z,10.20
2023-01-03T04:06:45.822Z,10.10
2023-01-03T04:07:45.797Z,11.20
2023-01-03T04:08:45.807Z,9.50
2023-01-03T04:09:45.788Z,10.30
2023-01-03T04:10:45.784Z,9.80
2023-01-03T04:11:45.791Z,9.80
2023-01-03T04:12:45.777Z,9.90
2023-01-03T04:13:45.786Z,9.90
2023-01-03T04:14:45.775Z,10.40
2023-01-03T04:15:45.783Z,10.20
2023-01-03T04:16:45.828Z,10.00
2023-01-03T04:17:45.770Z,10.30
2023-01-03T04:18:45.780Z,10.20
2023-01-03T04:19:45.767Z,9.70
2023-01-03T04:20:45.813Z,10.00
2023-01-03T04:21:45.759Z,9.90
2023-01-03T04:22:45.781Z,9.90
2023-01-03T04:23:45.762Z,9.80
2023-01-03T04:24:45.770Z,10.10
2023-01-03T04:25:45.752Z,9.80
2023-01-03T04:26:45.746Z,9.70
2023-01-03T04:27:45.762Z,9.20
2023-01-03T04:28:45.749Z,9.80
2023-01-03T04:29:45.813Z,9.10
2023-01-03T04:30:45.743Z,9.90
2023-01-03T04:31:45.824Z,10.10
2023-01-03T04:32:45.756Z,10.20
2023-01-03T04:33:45.761Z,10.10
2023-01-03T04:34:45.737Z,10.20
2023-01-03T04:35:45.727Z,10.30
2023-01-03T04:36:45.729Z,9.90
2023-01-03T04:37:45.731Z,9.40
2023-01-03T04:38:45.944Z,10.30
2023-01-03T04:39:45.717Z,10.20
2023-01-03T04:40:45.720Z,10.50
2023-01-03T04:41:45.726Z,9.90
2023-01-03T04:42:45.738Z,9.40
2023-01-03T04:43:45.711Z,9.90
2023-01-03T04:44:45.717Z,10.10
2023-01-03T04:45:45.791Z,10.10
2023-01-03T04:46:50.802Z,9.50
2023-01-03T04:47:45.703Z,10.20
2023-01-03T04:48:45.699Z,9.80
2023-01-03T04:49:45.693Z,9.30
2023-01-03T04:50:45.702Z,9.90
2023-01-03T04:51:45.690Z,10.10
2023-01-03T04:52:45.693Z,9.40
2023-01-03T04:53:45.706Z,9.00
2023-01-03T04:54:45.715Z,9.40
2023-01-03T04:55:45.685Z,8.90
2023-01-03T04:56:45.686Z,9.40
2023-01-03T04:57:45.677Z,9.50
2023-01-03T04:58:45.696Z,9.20
2023-01-03T04:59:45.692Z,9.10
2023-01-03T05:00:45.715Z,8.70
2023-01-03T05:01:45.808Z,9.20
2023-01-03T05:02:45.694Z,9.20
2023-01-03T05:03:45.720Z,9.20
2023-01-03T05:04:45.775Z,8.40
2023-01-03T05:05:45.672Z,9.10
2023-01-03T05:06:45.668Z,8.80
2023-01-03T05:07:45.654Z,9.00
2023-01-03T05:08:45.662Z,9.00
2023-01-03T05:09:45.665Z,9.20
2023-01-03T05:10:45.746Z,9.40
2023-01-03T05:11:45.646Z,9.60
2023-01-03T05:12:45.648Z,9.00
2023-01-03T05:13:45.657Z,8.90
2023-01-03T05:14:45.639Z,8.90
2023-01-03T05:15:45.634Z,9.30
2023-01-03T05:16:45.638Z,8.90
2023-01-03T05:17:45.638Z,8.40
2023-01-03T05:18:45.635Z,8.50
2023-01-03T05:19:45.769Z,9.00
2023-01-03T05:20:45.624Z,8.90
2023-01-03T05:21:45.620Z,8.60
2023-01-03T05:22:45.624Z,8.60
2023-01-03T05:23:45.621Z,8.60
2023-01-03T05:24:45.672Z,9.20
2023-01-03T05:25:45.615Z,8.60
2023-01-03T05:26:45.632Z,9.40
2023-01-03T05:27:45.607Z,9.40
2023-01-03T05:28:45.611Z,9.30
2023-01-03T05:29:45.602Z,9.60
2023-01-03T05:30:45.603Z,10.00
2023-01-03T05:31:45.701Z,9.70
2023-01-03T05:32:45.598Z,9.40
2023-01-03T05:33:45.594Z,9.20
2023-01-03T05:34:45.617Z,9.30
2023-01-03T05:35:45.587Z,9.70
2023-01-03T05:36:45.588Z,9.10
2023-01-03T05:37:45.578Z,9.50
2023-01-03T05:38:45.585Z,9.40
2023-01-03T05:39:45.574Z,9.30
2023-01-03T05:40:45.575Z,9.10
2023-01-03T05:41:45.572Z,9.90
2023-01-03T05:42:45.599Z,9.50
2023-01-03T05:43:45.565Z,9.60
2023-01-03T05:44:45.572Z,9.60
2023-01-03T05:45:45.640Z,8.90
2023-01-03T05:46:45.565Z,9.30
2023-01-03T05:47:45.559Z,9.40
2023-01-03T05:48:45.556Z,9.80
2023-01-03T05:49:45.606Z,9.60
2023-01-03T05:50:45.555Z,9.40
2023-01-03T05:51:45.545Z,9.60
2023-01-03T05:52:45.548Z,9.90
2023-01-03T05:53:45.544Z,9.80
2023-01-03T05:54:45.543Z,9.30
2023-01-03T05:55:45.534Z,9.50
2023-01-03T05:56:45.535Z,8.90
2023-01-03T05:57:45.531Z,9.50
2023-01-03T05:58:45.553Z,9.60
2023-01-03T05:59:45.533Z,9.40
2023-01-03T06:00:45.532Z,9.80
2023-01-03T06:01:45.627Z,9.50
2023-01-03T06:02:45.580Z,9.50
2023-01-03T06:03:45.559Z,9.30
2023-01-03T06:04:45.558Z,9.80
2023-01-03T06:05:50.047Z,9.80
2023-01-03T06:06:45.508Z,9.80
2023-01-03T06:07:45.505Z,9.60
2023-01-03T06:08:45.505Z,9.70
2023-01-03T06:09:45.503Z,9.80
2023-01-03T06:10:45.511Z,9.70
2023-01-03T06:11:45.507Z,9.30
2023-01-03T06:12:45.497Z,9.40
2023-01-03T06:13:45.487Z,9.20
2023-01-03T06:14:45.504Z,9.10
2023-01-03T06:15:45.486Z,9.10
2023-01-03T06:16:45.560Z,8.50
2023-01-03T06:17:45.481Z,8.30
2023-01-03T06:18:45.492Z,8.10
2023-01-03T06:19:45.490Z,8.00
2023-01-03T06:20:45.475Z,8.10
2023-01-03T06:21:45.464Z,8.40
2023-01-03T06:22:45.465Z,8.00
2023-01-03T06:23:45.462Z,8.10
2023-01-03T06:24:45.465Z,8.30
2023-01-03T06:25:45.471Z,8.50
2023-01-03T06:26:45.467Z,8.30
2023-01-03T06:27:45.456Z,8.50
2023-01-03T06:28:45.451Z,8.10
2023-01-03T06:29:45.458Z,8.20
2023-01-03T06:30:45.572Z,7.80
2023-01-03T06:31:45.445Z,8.20
2023-01-03T06:32:45.442Z,8.20
2023-01-03T06:33:45.449Z,7.90
2023-01-03T06:34:45.438Z,7.90
2023-01-03T06:35:45.430Z,8.00
2023-01-03T06:36:45.430Z,8.10
2023-01-03T06:37:45.423Z,8.30
2023-01-03T06:38:45.430Z,8.50
2023-01-03T06:39:45.421Z,8.80
2023-01-03T06:40:45.891Z,8.20
2023-01-03T06:41:45.418Z,8.60
2023-01-03T06:42:45.442Z,9.50
2023-01-03T06:43:45.413Z,9.50
2023-01-03T06:44:45.416Z,8.80
2023-01-03T06:45:45.474Z,8.90
2023-01-03T06:46:45.516Z,9.00
2023-01-03T06:47:45.401Z,8.70
2023-01-03T06:48:45.394Z,8.50
2023-01-03T06:49:45.397Z,8.50
2023-01-03T06:50:45.391Z,8.60
2023-01-03T06:51:45.387Z,9.10
2023-01-03T06:52:45.389Z,9.40
2023-01-03T06:53:45.417Z,8.90
2023-01-03T06:54:45.382Z,9.00
2023-01-03T06:55:47.019Z,8.60
2023-01-03T06:56:45.378Z,9.00
2023-01-03T06:57:45.384Z,8.90
2023-01-03T06:58:45.370Z,8.80
2023-01-03T06:59:45.365Z,8.90
2023-01-03T07:00:45.370Z,9.10
2023-01-03T07:01:45.556Z,9.40
2023-01-03T07:02:45.552Z,9.70
2023-01-03T07:03:45.359Z,9.20
2023-01-03T07:04:45.438Z,9.30
2023-01-03T07:05:45.348Z,9.30
2023-01-03T07:06:45.362Z,9.30
2023-01-03T07:07:45.340Z,9.20
2023-01-03T07:08:48.368Z,9.10
2023-01-03T07:09:45.345Z,9.40
2023-01-03T07:10:45.365Z,9.70
2023-01-03T07:11:45.326Z,9.20
2023-01-03T07:12:45.328Z,9.20
2023-01-03T07:13:45.327Z,8.90
2023-01-03T07:14:45.327Z,8.70
2023-01-03T07:15:45.419Z,8.90
2023-01-03T07:16:45.317Z,9.00
2023-01-03T07:17:45.310Z,8.40
2023-01-03T07:18:52.633Z,8.80
2023-01-03T07:19:45.308Z,8.80
2023-01-03T07:20:45.310Z,9.00
2023-01-03T07:21:45.301Z,8.60
2023-01-03T07:22:45.297Z,9.60
2023-01-03T07:23:45.294Z,9.50
2023-01-03T07:24:45.313Z,9.70
2023-01-03T07:25:45.295Z,9.50
2023-01-03T07:26:45.289Z,9.60
2023-01-03T07:27:45.282Z,10.00
2023-01-03T07:28:45.281Z,9.50
2023-01-03T07:29:45.298Z,9.30
2023-01-03T07:30:45.301Z,9.40
2023-01-03T07:31:45.347Z,9.70
2023-01-03T07:32:45.269Z,9.40
2023-01-03T07:33:45.267Z,9.70
2023-01-03T07:34:45.282Z,9.00
2023-01-03T07:35:45.306Z,8.80
2023-01-03T07:36:45.259Z,9.20
2023-01-03T07:37:45.252Z,9.20
2023-01-03T07:38:45.276Z,9.00
2023-01-03T07:39:45.249Z,9.10
2023-01-03T07:40:45.254Z,9.20
2023-01-03T07:41:45.273Z,9.60
2023-01-03T07:42:45.257Z,9.80
2023-01-03T07:43:45.229Z,11.00
2023-01-03T07:44:45.237Z,10.00
2023-01-03T07:45:45.243Z,10.30
2023-01-03T07:46:45.366Z,9.90
2023-01-03T07:47:45.232Z,9.50
2023-01-03T07:48:45.243Z,9.40
2023-01-03T07:49:45.236Z,9.70
2023-01-03T07:50:45.251Z,9.50
2023-01-03T07:51:45.216Z,9.60
2023-01-03T07:52:45.214Z,9.80
2023-01-03T07:53:45.210Z,9.70
2023-01-03T07:54:45.202Z,10.20
2023-01-03T07:55:45.205Z,9.50
2023-01-03T07:56:45.199Z,9.50
2023-01-03T07:57:45.192Z,9.50
2023-01-03T07:58:45.194Z,9.30
2023-01-03T07:59:45.189Z,9.60
2023-01-03T08:00:45.186Z,10.10
2023-01-03T08:01:45.350Z,10.30
2023-01-03T08:02:45.486Z,9.70
2023-01-03T08:03:45.182Z,10.50
2023-01-03T08:04:45.268Z,8.80
2023-01-03T08:05:45.179Z,10.00
2023-01-03T08:06:45.193Z,9.90
2023-01-03T08:07:45.159Z,9.90
2023-01-03T08:08:45.166Z,9.90
2023-01-03T08:09:45.151Z,9.50
2023-01-03T08:10:45.164Z,10.10
2023-01-03T08:11:45.152Z,9.70
2023-01-03T08:12:45.153Z,9.10
2023-01-03T08:13:45.154Z,9.90
2023-01-03T08:14:45.145Z,9.70
2023-01-03T08:15:45.200Z,9.40
2023-01-03T08:16:45.137Z,9.50
2023-01-03T08:17:45.130Z,9.70
2023-01-03T08:18:45.135Z,9.60
2023-01-03T08:19:45.956Z,9.60
2023-01-03T08:20:45.127Z,9.40
2023-01-03T08:21:45.120Z,9.40
2023-01-03T08:22:45.151Z,9.40
2023-01-03T08:23:45.115Z,9.40
2023-01-03T08:24:45.119Z,9.60
2023-01-03T08:25:45.112Z,9.50
2023-01-03T08:26:45.120Z,9.50
2023-01-03T08:27:49.999Z,8.90
2023-01-03T08:28:45.109Z,9.40
2023-01-03T08:29:45.095Z,9.20
2023-01-03T08:30:45.106Z,9.70
2023-01-03T08:31:45.150Z,9.70
2023-01-03T08:32:45.095Z,9.60
2023-01-03T08:33:45.094Z,9.60
2023-01-03T08:34:45.089Z,9.50
2023-01-03T08:35:45.087Z,9.80
2023-01-03T08:36:45.080Z,9.40
2023-01-03T08:37:45.078Z,10.00
2023-01-03T08:38:45.095Z,9.60
2023-01-03T08:39:45.080Z,9.90
2023-01-03T08:40:45.078Z,10.10
2023-01-03T08:41:45.063Z,10.30
2023-01-03T08:42:45.067Z,10.80
2023-01-03T08:43:45.126Z,10.50
2023-01-03T08:44:45.291Z,10.90
2023-01-03T08:45:45.079Z,10.60
2023-01-03T08:46:45.185Z,10.50
2023-01-03T08:47:45.046Z,10.20
2023-01-03T08:48:45.053Z,9.80
2023-01-03T08:49:45.050Z,9.80
2023-01-03T08:50:45.041Z,10.00
2023-01-03T08:51:45.039Z,10.20
2023-01-03T08:52:45.035Z,10.40
2023-01-03T08:53:45.037Z,10.00
2023-01-03T08:54:45.073Z,9.60
2023-01-03T08:55:45.031Z,9.70
2023-01-03T08:56:45.028Z,10.30
2023-01-03T08:57:45.043Z,10.20
2023-01-03T08:58:45.031Z,10.30
2023-01-03T08:59:45.019Z,9.80
2023-01-03T09:00:45.014Z,10.40
2023-01-03T09:01:45.280Z,10.20
2023-01-03T09:02:45.336Z,10.10
2023-01-03T09:03:45.270Z,10.10
2023-01-03T09:04:45.013Z,10.50
2023-01-03T09:05:45.008Z,10.20
2023-01-03T09:06:45.003Z,10.50
2023-01-03T09:07:44.998Z,10.50
2023-01-03T09:08:45.001Z,10.00
2023-01-03T09:09:44.998Z,10.60
2023-01-03T09:10:47.638Z,10.30
2023-01-03T09:11:44.997Z,10.60
2023-01-03T09:12:44.985Z,10.80
2023-01-03T09:13:44.992Z,10.20
2023-01-03T09:14:44.986Z,10.40
2023-01-03T09:15:45.045Z,10.20
2023-01-03T09:16:49.038Z,10.20
2023-01-03T09:17:44.991Z,10.20
2023-01-03T09:18:44.984Z,10.10
2023-01-03T09:19:44.980Z,9.80
2023-01-03T09:20:44.978Z,10.00
2023-01-03T09:21:44.976Z,9.90
2023-01-03T09:22:44.976Z,10.00
2023-01-03T09:23:45.009Z,9.80
2023-01-03T09:24:45.006Z,9.80
2023-01-03T09:25:44.965Z,9.80
2023-01-03T09:26:49.240Z,10.00
2023-01-03T09:27:45.001Z,10.00
2023-01-03T09:28:44.988Z,10.50
2023-01-03T09:29:44.970Z,10.40
2023-01-03T09:30:44.966Z,10.20
2023-01-03T09:31:46.020Z,9.80
2023-01-03T09:32:44.956Z,9.90
2023-01-03T09:33:44.962Z,9.80
2023-01-03T09:34:44.950Z,10.20
2023-01-03T09:35:44.971Z,10.10
2023-01-03T09:36:44.951Z,10.20
2023-01-03T09:37:48.792Z,10.40
2023-01-03T09:38:44.950Z,10.30
2023-01-03T09:39:44.958Z,10.10
2023-01-03T09:40:44.961Z,10.10
2023-01-03T09:41:44.956Z,10.00
2023-01-03T09:42:44.983Z,10.00
2023-01-03T09:43:44.939Z,10.80
2023-01-03T09:44:44.939Z,11.10
2023-01-03T09:45:44.943Z,10.40
2023-01-03T09:46:44.977Z,11.00
2023-01-03T09:47:44.947Z,10.80
2023-01-03T09:48:44.933Z,10.80
2023-01-03T09:50:18.431Z,10.90
2023-01-03T09:51:15.883Z,10.70
2023-01-03T09:51:45.015Z,11.40
2023-01-03T09:52:44.938Z,11.10
2023-01-03T09:53:44.961Z,11.20
2023-01-03T09:54:44.934Z,10.80
2023-01-03T09:55:44.949Z,11.00
2023-01-03T09:56:44.945Z,11.20
2023-01-03T09:57:44.951Z,10.50
2023-01-03T09:58:44.949Z,10.40
2023-01-03T09:59:44.978Z,10.00
2023-01-03T10:00:44.956Z,10.10
2023-01-03T10:01:45.272Z,10.40
2023-01-03T10:02:45.083Z,10.00
2023-01-03T10:03:52.817Z,10.20
2023-01-03T10:04:44.959Z,10.10
2023-01-03T10:05:44.928Z,11.10
2023-01-03T10:06:44.987Z,10.70
2023-01-03T10:07:44.963Z,11.00
2023-01-03T10:08:44.969Z,11.30
2023-01-03T10:09:44.970Z,11.40
2023-01-03T10:10:44.924Z,11.00
2023-01-03T10:11:44.925Z,11.50
2023-01-03T10:12:44.924Z,11.40
2023-01-03T10:13:44.965Z,10.80
2023-01-03T10:14:44.933Z,11.30
2023-01-03T10:15:44.922Z,10.70
2023-01-03T10:16:45.013Z,11.20
2023-01-03T10:17:44.915Z,11.50
2023-01-03T10:18:44.922Z,11.20
2023-01-03T10:19:44.933Z,10.70
2023-01-03T10:20:44.907Z,11.30
2023-01-03T10:21:44.939Z,11.60
2023-01-03T10:22:44.912Z,11.10
2023-01-03T10:23:44.961Z,11.50
2023-01-03T10:24:44.912Z,11.40
2023-01-03T10:25:44.919Z,12.00
2023-01-03T10:26:44.912Z,11.50
2023-01-03T10:27:44.920Z,11.00
2023-01-03T10:28:44.902Z,11.10
2023-01-03T10:29:44.912Z,11.20
2023-01-03T10:30:46.483Z,11.50
2023-01-03T10:31:45.046Z,11.60
2023-01-03T10:32:44.903Z,11.00
2023-01-03T10:33:44.932Z,10.70
2023-01-03T10:34:44.917Z,10.70
2023-01-03T10:35:44.907Z,10.50
2023-01-03T10:36:44.898Z,10.20
2023-01-03T10:37:44.920Z,9.60
2023-01-03T10:38:52.138Z,9.80
2023-01-03T10:39:44.905Z,10.10
2023-01-03T10:40:44.897Z,9.90
2023-01-03T10:41:44.906Z,10.40
2023-01-03T10:42:44.896Z,9.90
2023-01-03T10:43:44.922Z,10.30
2023-01-03T10:44:44.894Z,10.20
2023-01-03T10:45:49.561Z,10.70
2023-01-03T10:46:45.033Z,10.90
2023-01-03T10:47:44.903Z,10.40
2023-01-03T10:49:25.317Z,10.50
2023-01-03T10:49:44.897Z,10.60
2023-01-03T10:50:44.891Z,10.80
2023-01-03T10:51:44.900Z,10.40
2023-01-03T10:52:44.886Z,10.60
2023-01-03T10:53:44.892Z,10.30
2023-01-03T10:54:44.884Z,10.60
2023-01-03T10:55:44.896Z,10.20
2023-01-03T10:56:44.896Z,10.40
2023-01-03T10:57:44.885Z,10.30
2023-01-03T10:58:44.888Z,10.60
2023-01-03T10:59:44.888Z,10.90
2023-01-03T11:00:44.946Z,10.70
2023-01-03T11:01:45.126Z,10.60
2023-01-03T11:02:45.089Z,10.80
2023-01-03T11:03:51.077Z,10.50
2023-01-03T11:04:44.882Z,9.10
2023-01-03T11:05:44.897Z,10.10
2023-01-03T11:06:44.878Z,10.20
2023-01-03T11:07:44.888Z,10.00
2023-01-03T11:08:44.877Z,10.10
2023-01-03T11:09:50.663Z,10.60
2023-01-03T11:10:44.885Z,9.90
2023-01-03T11:11:44.874Z,10.00
2023-01-03T11:12:44.873Z,10.10
2023-01-03T11:13:44.886Z,10.50
2023-01-03T11:14:44.871Z,10.60
2023-01-03T11:15:44.893Z,10.40
2023-01-03T11:16:44.940Z,10.50
2023-01-03T11:17:44.875Z,10.60
2023-01-03T11:18:44.901Z,10.50
2023-01-03T11:19:44.883Z,10.50
2023-01-03T11:20:44.878Z,10.50
2023-01-03T11:21:44.885Z,9.90
2023-01-03T11:22:44.872Z,9.80
2023-01-03T11:23:44.871Z,10.20
2023-01-03T11:24:44.864Z,10.50
2023-01-03T11:25:44.872Z,9.90
2023-01-03T11:26:44.867Z,9.90
2023-01-03T11:27:44.873Z,9.90
2023-01-03T11:28:44.865Z,10.20
2023-01-03T11:29:44.873Z,10.10
2023-01-03T11:30:44.863Z,10.40
2023-01-03T11:31:44.961Z,10.40
2023-01-03T11:32:44.858Z,10.10
2023-01-03T11:33:44.864Z,10.40
2023-01-03T11:35:20.862Z,10.80
2023-01-03T11:35:44.861Z,10.60
2023-01-03T11:36:44.864Z,10.50
2023-01-03T11:37:44.860Z,10.30
2023-01-03T11:38:44.857Z,10.40
2023-01-03T11:39:44.864Z,10.10
2023-01-03T11:40:44.864Z,10.50
2023-01-03T11:41:44.882Z,10.50
2023-01-03T11:42:44.853Z,10.80
2023-01-03T11:43:44.859Z,10.40
2023-01-03T11:44:44.862Z,10.50
2023-01-03T11:45:48.784Z,10.50
2023-01-03T11:46:44.863Z,9.90
2023-01-03T11:47:44.855Z,10.30
2023-01-03T11:48:44.845Z,9.60
2023-01-03T11:49:44.847Z,10.60
2023-01-03T11:50:44.879Z,10.00
2023-01-03T11:51:44.847Z,9.90
2023-01-03T11:52:44.846Z,10.20
2023-01-03T11:53:47.880Z,9.90
2023-01-03T11:54:51.017Z,10.60
2023-01-03T11:55:44.842Z,10.90
2023-01-03T11:56:44.842Z,10.10
2023-01-03T11:57:44.846Z,9.60
2023-01-03T11:58:44.837Z,10.40
2023-01-03T11:59:45.166Z,9.90
2023-01-03T12:00:44.838Z,10.20
2023-01-03T12:01:44.947Z,10.10
2023-01-03T12:02:44.875Z,10.90
2023-01-03T12:03:44.917Z,10.30
2023-01-03T12:04:44.825Z,9.60
2023-01-03T12:05:44.874Z,10.40
2023-01-03T12:06:44.854Z,9.90
2023-01-03T12:07:48.104Z,10.20
2023-01-03T12:08:44.833Z,9.70
2023-01-03T12:09:44.833Z,10.10
2023-01-03T12:10:44.835Z,10.20
2023-01-03T12:11:44.827Z,10.00
2023-01-03T12:12:44.838Z,10.20
2023-01-03T12:13:44.834Z,10.30
2023-01-03T12:14:44.827Z,10.60
2023-01-03T12:15:44.888Z,10.60
2023-01-03T12:16:44.836Z,10.30
2023-01-03T12:17:44.829Z,10.90
2023-01-03T12:18:44.828Z,10.40
2023-01-03T12:19:44.830Z,10.50
2023-01-03T12:20:44.821Z,10.50
2023-01-03T12:21:44.828Z,10.70
2023-01-03T12:22:44.846Z,10.80
2023-01-03T12:23:44.828Z,10.60
2023-01-03T12:24:44.865Z,10.40
2023-01-03T12:25:44.823Z,10.40
2023-01-03T12:26:44.819Z,10.70
2023-01-03T12:27:44.815Z,10.40
2023-01-03T12:28:44.818Z,10.10
2023-01-03T12:29:44.817Z,10.50
2023-01-03T12:30:44.860Z,10.50
2023-01-03T12:31:44.962Z,10.30
2023-01-03T12:32:44.813Z,10.60
2023-01-03T12:33:44.814Z,10.70
2023-01-03T12:34:44.814Z,10.60
2023-01-03T12:35:44.806Z,10.60
2023-01-03T12:36:44.803Z,10.50
2023-01-03T12:37:44.808Z,10.30
2023-01-03T12:38:44.831Z,10.10
2023-01-03T12:39:44.849Z,10.40
2023-01-03T12:40:44.799Z,10.40
2023-01-03T12:41:44.810Z,10.50
2023-01-03T12:42:44.800Z,10.20
2023-01-03T12:43:44.801Z,10.40
2023-01-03T12:44:44.799Z,10.70
2023-01-03T12:45:44.802Z,10.50
2023-01-03T12:46:44.835Z,10.90
2023-01-03T12:47:44.801Z,9.90
2023-01-03T12:48:44.804Z,11.20
2023-01-03T12:49:44.805Z,10.50
2023-01-03T12:50:44.801Z,10.00
2023-01-03T12:51:44.792Z,10.50
2023-01-03T12:52:44.791Z,10.10
2023-01-03T12:53:47.186Z,10.00
2023-01-03T12:54:44.811Z,10.20
2023-01-03T12:55:44.817Z,10.70
2023-01-03T12:56:44.788Z,10.40
2023-01-03T12:57:44.792Z,9.90
2023-01-03T12:58:44.793Z,9.70
2023-01-03T12:59:44.787Z,9.70
2023-01-03T13:00:44.797Z,10.70
2023-01-03T13:01:44.885Z,9.90
2023-01-03T13:02:44.977Z,10.60